Sf Marine 7 — POLICE — position and weather

sailwx.info

Track history (hours):
 
Tides and Currents Weather Stations Pressure Air Temp Water Temp Dewpoint Dewpoint Depression Visibility Wind Speed Wind Dir Waves Ship Positions

Sf Marine 7

Last reported at 2018-Feb-20 18:31 UTC. Time now 2018-Feb-21 23:32 UTC.
Position N 37°49' W 122°25'.

Length 11 m.

MMSI: 338142436.

Date/timePositionNaut miles runAvg speedWind from/ knotsBaromVisibWave heightAir tempDewpointWater temp
2018-Feb-20 18:31N 37°49' W 122°25'0 0.4
2018-Feb-20 18:30N 37°49' W 122°25'0 0.0
2018-Feb-20 18:00N 37°49' W 122°25'  
2018-Feb-16 23:11N 37°49' W 122°25'0 0.0
2018-Feb-16 23:00N 37°49' W 122°25'0 0.0
2018-Feb-16 22:30N 37°49' W 122°25'0 0.0
2018-Feb-16 22:00N 37°49' W 122°25'0 0.0
2018-Feb-16 21:30N 37°49' W 122°25'0 0.0
2018-Feb-16 21:00N 37°49' W 122°25'0 0.0
2018-Feb-16 20:28N 37°49' W 122°25'0 0.0
2018-Feb-16 20:00N 37°49' W 122°25'0 0.0
2018-Feb-16 19:30N 37°49' W 122°25'0 0.0
2018-Feb-16 19:00N 37°49' W 122°25'0 0.0
2018-Feb-16 18:30N 37°49' W 122°25'0 0.0
2018-Feb-16 18:00N 37°49' W 122°25'0 0.0
2018-Feb-16 17:31N 37°49' W 122°25'0 0.0
2018-Feb-15 16:54N 37°49' W 122°25'0 0.0
2018-Feb-14 22:55N 37°49' W 122°25'0 0.0
2018-Feb-14 20:35N 37°49' W 122°25'1 9.7
2018-Feb-14 20:31N 37°49' W 122°25'712.6
2018-Feb-14 19:59N 37°44' W 122°31'3 5.5
2018-Feb-14 19:29N 37°47' W 122°31'510.2
2018-Feb-14 19:00N 37°49' W 122°25'612.1
2018-Feb-14 18:30N 37°43' W 122°22'4 8.8
2018-Feb-14 18:01N 37°47' W 122°23'2 0.8
2018-Feb-14 15:33N 37°49' W 122°25'0 0.2
2018-Feb-14 15:30N 37°49' W 122°25'  
2018-Feb-11 23:11N 37°49' W 122°25'213.0
2018-Feb-11 23:00N 37°48' W 122°22'1 2.2
2018-Feb-11 22:30N 37°49' W 122°22'2 3.5
2018-Feb-11 22:00N 37°48' W 122°20'2 3.4
2018-Feb-11 21:30N 37°49' W 122°22'  
Track history (hours):
 
Tides and Currents Weather Stations Pressure Air Temp Water Temp Dewpoint Dewpoint Depression Visibility Wind Speed Wind Dir Waves Ship Positions

Sf Marine 7

Last reported at 2018-Feb-20 18:31 UTC. Time now 2018-Feb-21 23:32 UTC.
Position N 37°49' W 122°25'.

Length 11 m.

MMSI: 338142436.

Date/timePositionNaut miles runAvg speedWind from/ knotsBaromVisibWave heightAir tempDewpointWater temp
2018-Feb-20 18:31N 37°49' W 122°25'0 0.4
2018-Feb-20 18:30N 37°49' W 122°25'0 0.0
2018-Feb-20 18:00N 37°49' W 122°25'  
2018-Feb-16 23:11N 37°49' W 122°25'0 0.0
2018-Feb-16 23:00N 37°49' W 122°25'0 0.0
2018-Feb-16 22:30N 37°49' W 122°25'0 0.0
2018-Feb-16 22:00N 37°49' W 122°25'0 0.0
2018-Feb-16 21:30N 37°49' W 122°25'0 0.0
2018-Feb-16 21:00N 37°49' W 122°25'0 0.0
2018-Feb-16 20:28N 37°49' W 122°25'0 0.0
2018-Feb-16 20:00N 37°49' W 122°25'0 0.0
2018-Feb-16 19:30N 37°49' W 122°25'0 0.0
2018-Feb-16 19:00N 37°49' W 122°25'0 0.0
2018-Feb-16 18:30N 37°49' W 122°25'0 0.0
2018-Feb-16 18:00N 37°49' W 122°25'0 0.0
2018-Feb-16 17:31N 37°49' W 122°25'0 0.0
2018-Feb-15 16:54N 37°49' W 122°25'0 0.0
2018-Feb-14 22:55N 37°49' W 122°25'0 0.0
2018-Feb-14 20:35N 37°49' W 122°25'1 9.7
2018-Feb-14 20:31N 37°49' W 122°25'712.6
2018-Feb-14 19:59N 37°44' W 122°31'3 5.5
2018-Feb-14 19:29N 37°47' W 122°31'510.2
2018-Feb-14 19:00N 37°49' W 122°25'612.1
2018-Feb-14 18:30N 37°43' W 122°22'4 8.8
2018-Feb-14 18:01N 37°47' W 122°23'2 0.8
2018-Feb-14 15:33N 37°49' W 122°25'0 0.2
2018-Feb-14 15:30N 37°49' W 122°25'  
2018-Feb-11 23:11N 37°49' W 122°25'213.0
2018-Feb-11 23:00N 37°48' W 122°22'1 2.2
2018-Feb-11 22:30N 37°49' W 122°22'2 3.5
2018-Feb-11 22:00N 37°48' W 122°20'2 3.4
2018-Feb-11 21:30N 37°49' W 122°22'  

Dump ship's entire track history